Portada
METAR-TAF:

METAR-TAF

Aeroports :

Mae Sot, Tailàndia

latitud: 16-40N, longitud: 098-33E, altitud: 196 m

Observació

L'informe es va fer fa 9 hores i 5 minuts, a les 11:00 UTC
Vent 5 kt del Est
Temperatura 31°C
Humitat 49%
Pressió 1011 hPa
Visibilitat 10 km o més

METAR: VTPM 131100Z 09005KT 9999 NSC 31/19 Q1011 NOSIG

Hora: 03:05 (20:05 UTC)

Pronòstic

L'informe es va fer fa 3 hores i 5 minuts, a les 17:00 UTC
Pronòstic vàlid del 13 a les 18 UTC al 14 a les 18 UTC
Vent 5 kt del Est
Visibilitat 10 km o més
Escasses núvols a una alçada de 3000 ft

TAF: VTPM 131700Z 1318/1418 08005KT 9999 FEW030

Observacions i pronòstics meteorològics de més de 4000 aeroports (METAR i TAF).

Les estacions disponibles són els punts grocs i vermells al mapa.

Posi el ratolí al punt desitjat per veure el nom de l'estació.

Feu clic per veure les observacions i els pronòstics meteorològics.

Per canviar el mapa: feu clic els botons verds amb una creu de color negre per apropar; al botó verd amb un guió per allunyar la imatge; o en les fletxes verdes per a mapes adjacents.


METAR-TAF: